createdAt,value
2023-01-19T00:02:39.914Z,0.0
2023-01-19T00:14:24.430Z,0.0
2023-01-19T00:22:06.481Z,0.0
2023-01-19T00:30:13.777Z,0.0
2023-01-19T00:37:51.117Z,0.0
2023-01-19T01:06:55.240Z,0.0
2023-01-19T01:13:52.072Z,0.0
2023-01-19T01:33:40.593Z,0.0
2023-01-19T01:46:31.266Z,0.0
2023-01-19T01:53:35.048Z,0.0
2023-01-19T02:00:38.830Z,0.0
2023-01-19T02:07:39.292Z,0.0
2023-01-19T02:14:42.241Z,0.0
2023-01-19T02:22:10.442Z,0.0
2023-01-19T02:36:40.290Z,0.0
2023-01-19T02:56:27.183Z,0.0
2023-01-19T03:04:32.597Z,0.0
2023-01-19T03:19:32.156Z,0.0
2023-01-19T03:28:31.872Z,0.0
2023-01-19T03:41:05.073Z,0.0
2023-01-19T03:49:31.672Z,0.0
2023-01-19T04:03:22.248Z,0.0
2023-01-19T04:11:35.420Z,0.0
2023-01-19T04:23:58.666Z,0.0
2023-01-19T04:32:01.257Z,0.0
2023-01-19T04:47:17.456Z,0.0
2023-01-19T04:56:12.833Z,0.0
2023-01-19T05:03:48.439Z,0.0
2023-01-19T05:24:20.213Z,0.0
2023-01-19T05:31:22.247Z,0.0
2023-01-19T05:39:00.200Z,0.0
2023-01-19T05:46:22.739Z,0.0
2023-01-19T05:55:30.724Z,0.0
2023-01-19T06:04:58.422Z,0.0
2023-01-19T06:11:51.145Z,0.0
2023-01-19T06:18:33.109Z,0.0
2023-01-19T06:25:15.519Z,0.0
2023-01-19T06:36:42.544Z,0.0
2023-01-19T06:43:21.233Z,0.0
2023-01-19T06:50:00.836Z,0.0
2023-01-19T06:56:56.492Z,0.0
2023-01-19T07:03:50.975Z,0.0
2023-01-19T07:28:50.857Z,0.0
2023-01-19T07:49:19.622Z,0.0
2023-01-19T07:59:03.616Z,0.4368561872909699
2023-01-19T08:07:14.115Z,6.525752508361203
2023-01-19T08:14:54.727Z,9.324615384615383
2023-01-19T08:27:15.375Z,15.35070234113711
2023-01-19T08:34:20.808Z,19.294648829431434
2023-01-19T08:48:57.917Z,31.715384615384597
2023-01-19T08:55:35.429Z,36.566889632107035
2023-01-19T09:02:26.768Z,26.565284280936467
2023-01-19T09:09:22.945Z,30.17709030100334
2023-01-19T09:16:02.772Z,29.708628762541817
2023-01-19T09:22:43.354Z,23.895284280936448
2023-01-19T09:34:55.304Z,23.425953177257526
2023-01-19T09:44:06.770Z,26.254581939799323
2023-01-19T09:55:18.091Z,16.065083612040123
2023-01-19T10:01:59.719Z,15.46785953177257
2023-01-19T10:12:54.253Z,15.427892976588621
2023-01-19T10:19:32.752Z,13.994381270903006
2023-01-19T10:30:25.072Z,24.025150501672247
2023-01-19T10:36:59.276Z,23.284983277591984
2023-01-19T10:50:05.312Z,34.67153846153847
2023-01-19T11:02:27.998Z,15.407458193979929
2023-01-19T11:09:42.070Z,16.075217391304342
2023-01-19T11:26:07.908Z,28.391806020066884
2023-01-19T11:33:18.666Z,21.008996655518388
2023-01-19T11:39:55.851Z,36.82331103678929
2023-01-19T11:51:39.447Z,30.713645484949804
2023-01-19T12:00:57.801Z,53.02026755852841
2023-01-19T12:12:29.855Z,67.02862876254174
2023-01-19T12:19:13.451Z,68.15418060200668
2023-01-19T12:25:49.860Z,64.28605351170562
2023-01-19T12:37:20.675Z,59.790468227424746
2023-01-19T12:44:26.276Z,55.46581939799332
2023-01-19T12:51:19.475Z,48.46973244147158
2023-01-19T12:58:10.497Z,61.32083612040136
2023-01-19T13:04:57.979Z,69.53418060200667
2023-01-19T13:11:38.009Z,63.625183946488285
2023-01-19T13:25:04.163Z,49.54919732441466
2023-01-19T13:32:47.819Z,33.81227424749163
2023-01-19T13:44:00.010Z,24.08234113712375
2023-01-19T13:56:17.231Z,23.938093645484948
2023-01-19T14:02:54.358Z,18.524180602006687
2023-01-19T14:12:04.869Z,26.531939799331088
2023-01-19T14:18:39.002Z,11.522040133779267
2023-01-19T14:31:14.533Z,7.393745819397995
2023-01-19T14:37:52.570Z,5.983444816053508
2023-01-19T14:56:13.380Z,9.769364548494977
2023-01-19T15:02:45.430Z,5.032140468227428
2023-01-19T15:09:17.069Z,3.098294314381271
2023-01-19T15:38:56.126Z,1.2604682274247496
2023-01-19T15:45:22.334Z,0.0
2023-01-19T15:51:50.251Z,0.0
2023-01-19T15:58:17.309Z,0.0
2023-01-19T16:06:52.091Z,0.0
2023-01-19T16:18:21.713Z,0.0
2023-01-19T16:27:15.952Z,0.0
2023-01-19T16:33:44.860Z,0.0
2023-01-19T16:41:19.652Z,0.0
2023-01-19T16:47:52.218Z,0.0
2023-01-19T16:59:36.157Z,0.0
2023-01-19T17:06:06.384Z,0.0
2023-01-19T17:12:34.350Z,0.0
2023-01-19T17:22:07.894Z,0.0
2023-01-19T17:28:38.679Z,0.0
2023-01-19T17:35:12.191Z,0.0
2023-01-19T17:41:45.733Z,0.0
2023-01-19T17:48:19.265Z,0.0
2023-01-19T17:54:55.431Z,0.0
2023-01-19T18:04:33.914Z,0.0
2023-01-19T18:15:17.003Z,0.0
2023-01-19T18:21:46.270Z,0.0
2023-01-19T18:28:13.723Z,0.0
2023-01-19T18:34:45.981Z,0.0
2023-01-19T18:41:19.169Z,0.0
2023-01-19T18:50:59.116Z,0.0
2023-01-19T18:57:40.737Z,0.0
2023-01-19T19:04:38.427Z,0.0
2023-01-19T19:11:36.491Z,0.0
2023-01-19T19:18:23.062Z,0.0
2023-01-19T19:25:02.143Z,0.0
2023-01-19T19:35:11.839Z,0.0
2023-01-19T19:42:00.378Z,0.0
2023-01-19T19:48:44.871Z,0.0
2023-01-19T19:56:22.328Z,0.0
2023-01-19T20:05:03.974Z,0.0
2023-01-19T20:20:03.671Z,0.0
2023-01-19T20:26:53.062Z,0.0
2023-01-19T20:37:01.375Z,0.0
2023-01-19T20:53:42.163Z,0.0
2023-01-19T21:00:20.103Z,0.0
2023-01-19T21:06:55.411Z,0.0
2023-01-19T21:13:29.949Z,0.0
2023-01-19T21:20:20.395Z,0.0
2023-01-19T21:26:59.001Z,0.0
2023-01-19T21:33:39.824Z,0.0
2023-01-19T21:40:14.603Z,0.0
2023-01-19T21:46:50.426Z,0.0
2023-01-19T21:53:35.137Z,0.0
2023-01-19T22:00:29.305Z,0.0
2023-01-19T22:07:12.925Z,0.0
2023-01-19T22:14:13.556Z,0.0
2023-01-19T22:31:59.125Z,0.0
2023-01-19T22:40:51.904Z,0.0
2023-01-19T22:48:08.705Z,0.0
2023-01-19T22:55:27.026Z,0.0
2023-01-19T23:02:52.106Z,0.0
2023-01-19T23:14:56.899Z,0.0
2023-01-19T23:28:18.734Z,0.0
2023-01-19T23:43:11.144Z,0.0
2023-01-19T23:50:05.027Z,0.0
2023-01-19T23:56:58.354Z,0.0
